ADDS TAF Board (Experimental) INFO Settings

IDs: Format: Expanded Condensed

KMSP - Minneapolis-St Paul, MN, US

Issued at 1739 UTC 30 Mar 2015
Updated at: 2002 UTC 30 Mar 2015
Time1953Z 30/21Z 30/22Z 30/23Z 31/00Z 31/01Z 31/02Z 31/03Z 31/04Z 31/05Z 31/06Z 31/07Z 31/08Z 31/09Z
Type OBS PRVL PRVL PRVL PRVL PRVL PRVL PRVL PRVL PRVL PRVL PRVL PRVL PRVL
VIS 10 >6 >6 >6 >6 >6 >6 >6 >6 >6 >6 >6 >6 >6
CIG 140 -- -- -- -- -- -- -- -- -- -- -- -- --
Cover BKN SCT SCT SKC SKC SKC SKC SKC SKC SKC SKC SKC SKC SKC
FltCat VFR VFR VFR VFR VFR VFR VFR VFR VFR VFR VFR VFR VFR VFR
WX -- -- -- -- -- -- -- -- -- -- -- -- -- --
WDir 130 120 120 100 100 100 40 40 40 40 300 300 300 300
WSpd 13 12 12 6 6 6 5 5 5 5 7 7 7 7
WGst -- 19 19 -- -- -- -- -- -- -- -- -- -- --
R04/22
XWnd -13 -12 -12 -5 -5 -5 0 0 0 0 7 7 7 7
XGst -- -18 -18 -- -- -- -- -- -- -- -- -- -- --
HWnd 1 3 3 3 3 3 5 5 5 5 -2 -2 -2 -2
HGst -- 5 5 -- -- -- -- -- -- -- -- -- -- --
R12/30
XWnd -2 0 0 2 2 2 5 5 5 5 -0 -0 -0 -0
XGst -- 0 0 -- -- -- -- -- -- -- -- -- -- --
HWnd 13 12 12 6 6 6 1 1 1 1 -7 -7 -7 -7
HGst -- 19 19 -- -- -- -- -- -- -- -- -- -- --
R17/35
XWnd 8 9 9 6 6 6 4 4 4 4 -5 -5 -5 -5
XGst -- 15 15 -- -- -- -- -- -- -- -- -- -- --
HWnd 10 8 8 2 2 2 -3 -3 -3 -3 -4 -4 -4 -4
HGst -- 12 12 -- -- -- -- -- -- -- -- -- -- --

NOTE: TEMPO conditions in [brackets]. Keep in mind TEMPO conditions might be better (lower impact) than prevailing conditions.

Raw TAF
KMSP 301739Z 3018/3124 09005KT P6SM OVC080
  FM302000 12012G19KT P6SM SCT120
  FM302300 10006KT P6SM SKC
  FM310200 04005KT P6SM SKC
  FM310600 30007KT P6SM SKC


Raw METAR
KMSP 301953Z 13013KT 10SM BKN140 BKN250 12/M01 A2985 RMK AO2 SLP112 T01171006
KMSP 301853Z 13012KT 10SM BKN140 BKN250 11/M01 A2988 RMK AO2 SLP123 T01061006
KMSP 301753Z 08009KT 10SM OVC075 09/M01 A2991 RMK AO2 SLP133 VIRGA T00941011 10094 20028 58012

METAR Board
Radar Display
Forecast Discussion

TAF Board Legend

Potential Impact
Threat None Slight Moderate High
Visibility (sm) ≥5.1 5.1>X≥3 3>X≥1 <1
Ceiling (100 ft) ≥30.1 30.1>X≥10 10>X≥5 <5
Wind Speed (kt) <10 10≤X<20 20≤X<30 ≥30
Wind Gust (kt) <15 15≤X<25 25≤X<35 ≥35
Weather No Wx Reported VCTS,-TS,-FZRA,SN TS,FZRA +TS,+FZRA,+SN